createdAt,value
2018-08-03T00:00:08.272Z,16.51
2018-08-03T00:01:08.206Z,16.54
2018-08-03T00:02:08.180Z,16.51
2018-08-03T00:03:08.121Z,16.49
2018-08-03T00:04:08.068Z,16.51
2018-08-03T00:05:08.267Z,16.60
2018-08-03T00:06:07.962Z,16.56
2018-08-03T00:07:07.930Z,16.61
2018-08-03T00:08:07.893Z,16.47
2018-08-03T00:09:07.852Z,16.49
2018-08-03T00:10:07.790Z,16.42
2018-08-03T00:11:07.988Z,16.43
2018-08-03T00:12:07.733Z,16.56
2018-08-03T00:13:07.640Z,16.53
2018-08-03T00:14:07.635Z,16.53
2018-08-03T00:15:07.559Z,16.56
2018-08-03T00:16:07.504Z,16.60
2018-08-03T00:17:07.712Z,16.42
2018-08-03T00:18:07.460Z,16.47
2018-08-03T00:19:07.358Z,16.47
2018-08-03T00:20:07.307Z,16.49
2018-08-03T00:21:07.275Z,16.47
2018-08-03T00:22:07.243Z,16.49
2018-08-03T00:23:07.430Z,16.50
2018-08-03T00:24:07.134Z,16.49
2018-08-03T00:25:07.089Z,16.51
2018-08-03T00:26:07.058Z,16.47
2018-08-03T00:27:07.012Z,16.46
2018-08-03T00:28:06.937Z,16.43
2018-08-03T00:29:07.156Z,16.42
2018-08-03T00:30:06.845Z,16.42
2018-08-03T00:31:06.818Z,16.43
2018-08-03T00:32:06.774Z,16.47
2018-08-03T00:33:06.729Z,16.46
2018-08-03T00:34:06.648Z,16.42
2018-08-03T00:35:06.868Z,16.42
2018-08-03T00:36:06.579Z,16.47
2018-08-03T00:37:06.520Z,16.49
2018-08-03T00:38:06.481Z,16.46
2018-08-03T00:39:06.410Z,16.47
2018-08-03T00:40:06.412Z,16.41
2018-08-03T00:41:06.578Z,16.41
2018-08-03T00:42:06.269Z,16.47
2018-08-03T00:43:06.240Z,16.46
2018-08-03T00:44:06.188Z,16.46
2018-08-03T00:45:06.135Z,16.46
2018-08-03T00:46:06.093Z,16.28
2018-08-03T00:47:06.843Z,16.32
2018-08-03T00:48:05.976Z,16.39
2018-08-03T00:49:05.933Z,16.46
2018-08-03T00:50:05.901Z,16.38
2018-08-03T00:51:05.863Z,16.42
2018-08-03T00:52:05.824Z,16.42
2018-08-03T00:53:06.022Z,16.50
2018-08-03T00:54:05.705Z,16.50
2018-08-03T00:55:05.652Z,16.41
2018-08-03T00:56:05.608Z,16.50
2018-08-03T00:57:05.558Z,16.41
2018-08-03T00:58:05.526Z,16.29
2018-08-03T00:59:05.739Z,16.39
2018-08-03T01:00:05.433Z,16.47
2018-08-03T01:01:05.371Z,16.42
2018-08-03T01:02:05.335Z,16.43
2018-08-03T01:03:05.261Z,16.31
2018-08-03T01:04:05.224Z,16.39
2018-08-03T01:05:05.435Z,16.39
2018-08-03T01:06:05.144Z,16.42
2018-08-03T01:07:05.077Z,16.39
2018-08-03T01:08:05.047Z,16.23
2018-08-03T01:09:04.993Z,16.29
2018-08-03T01:10:04.955Z,16.29
2018-08-03T01:11:05.151Z,16.31
2018-08-03T01:12:04.901Z,16.36
2018-08-03T01:13:04.812Z,16.33
2018-08-03T01:14:04.759Z,16.36
2018-08-03T01:15:04.723Z,16.42
2018-08-03T01:16:04.938Z,16.50
2018-08-03T01:17:04.608Z,16.39
2018-08-03T01:18:04.571Z,16.29
2018-08-03T01:19:04.575Z,16.49
2018-08-03T01:20:04.478Z,16.42
2018-08-03T01:21:04.480Z,16.38
2018-08-03T01:22:07.692Z,16.35
2018-08-03T01:23:04.324Z,16.31
2018-08-03T01:24:04.299Z,16.41
2018-08-03T01:25:04.228Z,16.39
2018-08-03T01:26:04.176Z,16.33
2018-08-03T01:27:04.140Z,16.31
2018-08-03T01:28:04.097Z,16.39
2018-08-03T01:29:04.091Z,16.28
2018-08-03T01:30:04.013Z,16.32
2018-08-03T01:31:03.967Z,16.36
2018-08-03T01:32:03.947Z,16.28
2018-08-03T01:33:03.857Z,16.33
2018-08-03T01:34:03.808Z,16.38
2018-08-03T01:35:03.786Z,16.36
2018-08-03T01:36:03.711Z,16.43
2018-08-03T01:37:03.655Z,16.29
2018-08-03T01:38:03.640Z,16.31
2018-08-03T01:39:03.564Z,16.46
2018-08-03T01:40:03.531Z,16.36
2018-08-03T01:41:03.493Z,16.33
2018-08-03T01:42:03.445Z,16.38
2018-08-03T01:43:03.378Z,16.31
2018-08-03T01:44:03.349Z,16.35
2018-08-03T01:45:03.278Z,16.32
2018-08-03T01:46:03.255Z,16.35
2018-08-03T01:47:03.187Z,16.35
2018-08-03T01:48:03.157Z,16.43
2018-08-03T01:49:03.105Z,16.33
2018-08-03T01:50:03.039Z,16.38
2018-08-03T01:51:03.009Z,16.35
2018-08-03T01:52:02.963Z,16.41
2018-08-03T01:53:02.920Z,16.28
2018-08-03T01:54:02.849Z,16.38
2018-08-03T01:55:02.819Z,16.36
2018-08-03T01:56:02.770Z,16.41
2018-08-03T01:57:02.730Z,16.41
2018-08-03T01:58:02.679Z,16.35
2018-08-03T01:59:02.638Z,16.36
2018-08-03T02:00:02.587Z,16.38
2018-08-03T02:01:02.531Z,16.35
2018-08-03T02:02:02.497Z,16.41
2018-08-03T02:03:02.422Z,16.39
2018-08-03T02:04:02.398Z,16.29
2018-08-03T02:05:02.348Z,16.35
2018-08-03T02:06:02.295Z,16.36
2018-08-03T02:07:02.244Z,16.28
2018-08-03T02:08:02.213Z,16.36
2018-08-03T02:09:02.145Z,16.33
2018-08-03T02:10:02.120Z,16.24
2018-08-03T02:11:02.093Z,16.32
2018-08-03T02:12:02.017Z,16.38
2018-08-03T02:13:01.959Z,16.46
2018-08-03T02:14:01.924Z,16.41
2018-08-03T02:15:01.878Z,16.35
2018-08-03T02:16:01.821Z,16.29
2018-08-03T02:17:01.786Z,16.31
2018-08-03T02:18:01.744Z,16.35
2018-08-03T02:19:01.680Z,16.31
2018-08-03T02:20:01.620Z,16.35
2018-08-03T02:21:01.578Z,16.42
2018-08-03T02:22:01.544Z,16.33
2018-08-03T02:23:01.490Z,16.38
2018-08-03T02:24:01.436Z,16.47
2018-08-03T02:25:01.409Z,16.46
2018-08-03T02:26:01.391Z,16.49
2018-08-03T02:27:01.306Z,16.49
2018-08-03T02:28:01.246Z,16.41
2018-08-03T02:29:01.227Z,16.28
2018-08-03T02:30:01.175Z,16.50
2018-08-03T02:31:01.125Z,16.47
2018-08-03T02:32:01.069Z,16.51
2018-08-03T02:33:01.029Z,16.42
2018-08-03T02:34:00.973Z,16.46
2018-08-03T02:35:00.938Z,16.49
2018-08-03T02:36:00.874Z,16.53
2018-08-03T02:37:00.833Z,16.54
2018-08-03T02:38:00.788Z,16.39
2018-08-03T02:39:00.729Z,16.50
2018-08-03T02:40:00.678Z,16.47
2018-08-03T02:41:00.650Z,16.50
2018-08-03T02:42:00.604Z,16.46
2018-08-03T02:43:00.554Z,16.47
2018-08-03T02:44:00.504Z,16.47
2018-08-03T02:45:00.496Z,16.49
2018-08-03T02:46:00.395Z,16.56
2018-08-03T02:47:00.348Z,16.51
2018-08-03T02:48:00.320Z,16.43
2018-08-03T02:49:00.276Z,16.43
2018-08-03T02:50:00.194Z,16.46
2018-08-03T02:51:00.173Z,16.51
2018-08-03T02:52:00.112Z,16.57
2018-08-03T02:53:00.082Z,16.61
2018-08-03T02:54:00.036Z,16.50
2018-08-03T02:54:59.969Z,16.65
2018-08-03T02:55:59.943Z,16.60
2018-08-03T02:56:59.903Z,16.64
2018-08-03T02:57:59.837Z,16.61
2018-08-03T02:58:59.785Z,16.57
2018-08-03T02:59:59.744Z,16.56
2018-08-03T03:00:59.693Z,16.57
2018-08-03T03:01:59.640Z,16.56
2018-08-03T03:02:59.616Z,16.60
2018-08-03T03:03:59.604Z,16.61
2018-08-03T03:04:59.503Z,16.54
2018-08-03T03:05:59.454Z,16.56
2018-08-03T03:06:59.409Z,16.58
2018-08-03T03:07:59.369Z,16.49
2018-08-03T03:08:59.311Z,16.54
2018-08-03T03:09:59.288Z,16.46
2018-08-03T03:10:59.220Z,16.50
2018-08-03T03:11:59.179Z,16.53
2018-08-03T03:12:59.134Z,16.47
2018-08-03T03:13:59.100Z,16.53
2018-08-03T03:14:59.051Z,16.39
2018-08-03T03:15:58.993Z,16.49
2018-08-03T03:16:58.951Z,16.46
2018-08-03T03:17:58.942Z,16.46
2018-08-03T03:18:58.862Z,16.50
2018-08-03T03:19:58.800Z,16.58
2018-08-03T03:20:58.767Z,16.56
2018-08-03T03:21:58.715Z,16.58
2018-08-03T03:22:58.645Z,16.60
2018-08-03T03:23:58.608Z,16.51
2018-08-03T03:24:58.575Z,16.54
2018-08-03T03:25:58.533Z,16.61
2018-08-03T03:26:58.476Z,16.57
2018-08-03T03:27:58.478Z,16.71
2018-08-03T03:28:58.377Z,16.51
2018-08-03T03:29:58.343Z,16.69
2018-08-03T03:30:58.271Z,16.69
2018-08-03T03:31:58.229Z,16.66
2018-08-03T03:32:58.193Z,16.68
2018-08-03T03:33:58.134Z,16.69
2018-08-03T03:34:58.086Z,16.76
2018-08-03T03:35:58.067Z,16.72
2018-08-03T03:36:58.047Z,16.69
2018-08-03T03:37:57.944Z,16.72
2018-08-03T03:38:57.915Z,16.68
2018-08-03T03:39:57.852Z,16.58
2018-08-03T03:40:57.811Z,16.57
2018-08-03T03:41:57.779Z,16.60
2018-08-03T03:42:57.764Z,16.64
2018-08-03T03:43:57.664Z,16.60
2018-08-03T03:44:57.631Z,16.56
2018-08-03T03:45:57.561Z,16.58
2018-08-03T03:46:57.527Z,16.61
2018-08-03T03:47:57.496Z,16.53
2018-08-03T03:48:57.448Z,16.57
2018-08-03T03:49:57.394Z,16.61
2018-08-03T03:50:57.364Z,16.64
2018-08-03T03:51:57.302Z,16.60
2018-08-03T03:52:57.252Z,16.54
2018-08-03T03:53:57.193Z,16.61
2018-08-03T03:54:57.152Z,16.57
2018-08-03T03:55:57.110Z,16.60
2018-08-03T03:56:57.040Z,16.58
2018-08-03T03:57:57.026Z,16.61
2018-08-03T03:58:56.955Z,16.57
2018-08-03T03:59:56.926Z,16.65
2018-08-03T04:00:56.878Z,16.56
2018-08-03T04:01:56.821Z,16.51
2018-08-03T04:02:56.773Z,16.58
2018-08-03T04:03:56.782Z,16.60
2018-08-03T04:04:56.673Z,16.58
2018-08-03T04:05:56.634Z,16.58
2018-08-03T04:06:56.581Z,16.64
2018-08-03T04:07:56.589Z,16.53
2018-08-03T04:08:56.503Z,16.56
2018-08-03T04:09:56.457Z,16.49
2018-08-03T04:10:56.446Z,16.50
2018-08-03T04:11:56.387Z,16.58
2018-08-03T04:12:56.310Z,16.57
2018-08-03T04:13:56.263Z,16.50
2018-08-03T04:14:56.210Z,16.46
2018-08-03T04:15:56.205Z,16.43
2018-08-03T04:16:56.130Z,16.47
2018-08-03T04:17:56.072Z,16.51
2018-08-03T04:18:56.020Z,16.51
2018-08-03T04:19:55.972Z,16.53
2018-08-03T04:20:55.920Z,16.49
2018-08-03T04:21:55.878Z,16.53
2018-08-03T04:22:55.853Z,16.47
2018-08-03T04:23:55.779Z,16.47
2018-08-03T04:24:55.786Z,16.46
2018-08-03T04:25:55.685Z,16.56
2018-08-03T04:26:55.652Z,16.58
2018-08-03T04:27:55.581Z,16.65
2018-08-03T04:28:55.542Z,16.56
2018-08-03T04:29:55.514Z,16.57
2018-08-03T04:30:55.456Z,16.56
2018-08-03T04:31:55.412Z,16.57
2018-08-03T04:32:55.358Z,16.64
2018-08-03T04:33:55.321Z,16.57
2018-08-03T04:34:55.270Z,16.60
2018-08-03T04:35:55.208Z,16.43
2018-08-03T04:36:55.172Z,16.49
2018-08-03T04:37:55.111Z,16.57
2018-08-03T04:38:55.118Z,16.57
2018-08-03T04:39:55.031Z,16.56
2018-08-03T04:40:54.974Z,16.56
2018-08-03T04:41:54.915Z,16.54
2018-08-03T04:42:54.886Z,16.56
2018-08-03T04:43:54.820Z,16.54
2018-08-03T04:44:54.797Z,16.57
2018-08-03T04:45:54.738Z,16.56
2018-08-03T04:46:54.705Z,16.69
2018-08-03T04:47:54.651Z,16.56
2018-08-03T04:48:54.621Z,16.60
2018-08-03T04:49:54.567Z,16.58
2018-08-03T04:50:54.518Z,16.58
2018-08-03T04:51:54.467Z,16.57
2018-08-03T04:52:54.396Z,16.61
2018-08-03T04:53:54.363Z,16.57
2018-08-03T04:54:54.328Z,16.58
2018-08-03T04:55:54.256Z,16.57
2018-08-03T04:56:54.231Z,16.51
2018-08-03T04:57:54.184Z,16.50
2018-08-03T04:58:54.154Z,16.57
2018-08-03T04:59:54.093Z,16.51
2018-08-03T05:00:54.059Z,16.54
2018-08-03T05:01:54.037Z,16.53
2018-08-03T05:02:53.964Z,16.60
2018-08-03T05:03:53.896Z,16.58
2018-08-03T05:04:53.899Z,16.60
2018-08-03T05:05:53.815Z,16.53
2018-08-03T05:06:53.764Z,16.51
2018-08-03T05:07:53.720Z,16.56
2018-08-03T05:08:53.666Z,16.60
2018-08-03T05:09:53.626Z,16.65
2018-08-03T05:10:53.554Z,16.61
2018-08-03T05:11:53.525Z,16.56
2018-08-03T05:12:53.478Z,16.57
2018-08-03T05:13:53.429Z,16.54
2018-08-03T05:14:53.370Z,16.54
2018-08-03T05:15:53.335Z,16.54
2018-08-03T05:16:53.330Z,16.50
2018-08-03T05:17:53.279Z,16.47
2018-08-03T05:18:53.188Z,16.43
2018-08-03T05:19:53.131Z,16.49
2018-08-03T05:20:53.096Z,16.54
2018-08-03T05:21:53.053Z,16.65
2018-08-03T05:22:53.047Z,16.56
2018-08-03T05:23:52.932Z,16.56
2018-08-03T05:24:52.961Z,16.56
2018-08-03T05:25:52.867Z,16.57
2018-08-03T05:26:52.819Z,16.60
2018-08-03T05:27:52.769Z,16.58
2018-08-03T05:28:52.716Z,16.61
2018-08-03T05:29:52.710Z,16.56
2018-08-03T05:30:52.627Z,16.60
2018-08-03T05:31:52.629Z,16.61
2018-08-03T05:32:52.548Z,16.61
2018-08-03T05:33:52.483Z,16.69
2018-08-03T05:34:52.474Z,16.68
2018-08-03T05:35:52.410Z,16.69
2018-08-03T05:36:52.338Z,16.68
2018-08-03T05:37:52.297Z,16.72
2018-08-03T05:38:52.243Z,16.66
2018-08-03T05:39:52.206Z,16.60
2018-08-03T05:40:52.150Z,16.61
2018-08-03T05:41:52.101Z,16.60
2018-08-03T05:42:52.069Z,16.60
2018-08-03T05:43:52.006Z,16.60
2018-08-03T05:44:52.015Z,16.58
2018-08-03T05:45:51.932Z,16.66
2018-08-03T05:46:51.859Z,16.68
2018-08-03T05:47:51.832Z,16.64
2018-08-03T05:48:51.794Z,16.68
2018-08-03T05:49:51.742Z,16.68
2018-08-03T05:50:51.686Z,16.64
2018-08-03T05:51:51.651Z,16.64
2018-08-03T05:52:51.639Z,16.66
2018-08-03T05:53:51.552Z,16.56
2018-08-03T05:54:51.485Z,16.68
2018-08-03T05:55:51.454Z,16.64
2018-08-03T05:56:51.427Z,16.54
2018-08-03T05:57:51.404Z,16.58
2018-08-03T05:58:51.315Z,16.64
2018-08-03T05:59:51.270Z,16.61
2018-08-03T06:00:51.217Z,16.68
2018-08-03T06:01:51.171Z,16.69
2018-08-03T06:02:51.114Z,16.76
2018-08-03T06:03:51.081Z,16.69
2018-08-03T06:04:51.023Z,16.66
2018-08-03T06:05:51.028Z,16.66
2018-08-03T06:06:50.930Z,16.64
2018-08-03T06:07:50.888Z,16.64
2018-08-03T06:08:50.820Z,16.58
2018-08-03T06:09:50.865Z,16.71
2018-08-03T06:10:50.749Z,16.58
2018-08-03T06:11:50.710Z,16.61
2018-08-03T06:12:50.649Z,16.61
2018-08-03T06:13:50.602Z,16.64
2018-08-03T06:14:50.566Z,16.60
2018-08-03T06:15:50.514Z,16.57
2018-08-03T06:16:50.505Z,16.56
2018-08-03T06:17:50.409Z,16.65
2018-08-03T06:18:50.371Z,16.50
2018-08-03T06:19:50.334Z,16.64
2018-08-03T06:20:50.280Z,16.57
2018-08-03T06:21:50.214Z,16.51
2018-08-03T06:22:50.181Z,16.56
2018-08-03T06:23:50.181Z,16.51
2018-08-03T06:24:50.072Z,16.64
2018-08-03T06:25:50.025Z,16.56
2018-08-03T06:26:49.995Z,16.58
2018-08-03T06:27:49.958Z,16.58
2018-08-03T06:28:49.901Z,16.60
2018-08-03T06:29:49.971Z,16.56
2018-08-03T06:30:49.797Z,16.51
2018-08-03T06:31:49.750Z,16.58
2018-08-03T06:32:49.752Z,16.66
2018-08-03T06:33:49.698Z,16.60
2018-08-03T06:34:49.608Z,16.57
2018-08-03T06:35:49.560Z,16.61
2018-08-03T06:36:49.517Z,16.75
2018-08-03T06:37:49.469Z,16.69
2018-08-03T06:38:49.416Z,16.60
2018-08-03T06:39:49.430Z,16.64
2018-08-03T06:40:49.336Z,16.58
2018-08-03T06:41:49.286Z,16.57
2018-08-03T06:42:49.221Z,16.60
2018-08-03T06:43:49.188Z,16.60
2018-08-03T06:44:49.141Z,16.69
2018-08-03T06:45:49.081Z,16.65
2018-08-03T06:46:49.054Z,16.68
2018-08-03T06:47:48.998Z,16.71
2018-08-03T06:48:48.995Z,16.74
2018-08-03T06:49:48.906Z,16.71
2018-08-03T06:50:48.866Z,16.69
2018-08-03T06:51:48.841Z,16.68
2018-08-03T06:52:48.809Z,16.69
2018-08-03T06:53:48.775Z,16.69
2018-08-03T06:54:48.660Z,16.66
2018-08-03T06:55:48.606Z,16.74
2018-08-03T06:56:48.576Z,16.74
2018-08-03T06:57:48.541Z,16.72
2018-08-03T06:58:48.471Z,16.69
2018-08-03T06:59:48.448Z,16.76
2018-08-03T07:00:48.437Z,16.78
2018-08-03T07:01:48.347Z,16.71
2018-08-03T07:02:48.338Z,16.72
2018-08-03T07:03:48.259Z,16.68
2018-08-03T07:04:48.201Z,16.68
2018-08-03T07:05:48.164Z,16.72
2018-08-03T07:06:48.095Z,16.72
2018-08-03T07:07:48.106Z,16.68
2018-08-03T07:08:48.000Z,16.72
2018-08-03T07:09:47.961Z,16.64
2018-08-03T07:10:47.963Z,16.60
2018-08-03T07:11:47.853Z,16.65
2018-08-03T07:12:47.863Z,16.64
2018-08-03T07:13:47.784Z,16.60
2018-08-03T07:14:47.830Z,16.57
2018-08-03T07:15:47.671Z,16.61
2018-08-03T07:16:47.630Z,16.65
2018-08-03T07:17:47.627Z,16.57
2018-08-03T07:18:47.544Z,16.56
2018-08-03T07:19:47.516Z,16.71
2018-08-03T07:20:47.467Z,16.65
2018-08-03T07:21:47.403Z,16.56
2018-08-03T07:22:47.354Z,16.60
2018-08-03T07:23:47.286Z,16.68
2018-08-03T07:24:47.270Z,16.66
2018-08-03T07:25:47.216Z,16.72
2018-08-03T07:26:47.154Z,16.71
2018-08-03T07:27:47.124Z,16.69
2018-08-03T07:28:47.065Z,16.78
2018-08-03T07:29:47.013Z,16.76
2018-08-03T07:30:46.971Z,16.75
2018-08-03T07:31:46.929Z,16.75
2018-08-03T07:32:46.884Z,16.72
2018-08-03T07:33:46.821Z,16.81
2018-08-03T07:34:46.788Z,16.74
2018-08-03T07:35:46.744Z,16.83
2018-08-03T07:36:46.717Z,16.68
2018-08-03T07:37:46.629Z,16.76
2018-08-03T07:38:46.643Z,16.87
2018-08-03T07:39:46.560Z,16.75
2018-08-03T07:40:46.504Z,16.83
2018-08-03T07:41:46.456Z,16.86
2018-08-03T07:42:46.469Z,16.76
2018-08-03T07:43:46.362Z,16.78
2018-08-03T07:44:46.322Z,16.76
2018-08-03T07:45:46.266Z,16.83
2018-08-03T07:46:46.214Z,16.84
2018-08-03T07:47:46.179Z,16.86
2018-08-03T07:48:46.182Z,16.78
2018-08-03T07:49:46.129Z,16.79
2018-08-03T07:50:46.032Z,16.79
2018-08-03T07:51:45.995Z,16.86
2018-08-03T07:52:45.990Z,16.87
2018-08-03T07:53:45.940Z,16.72
2018-08-03T07:54:45.862Z,16.74
2018-08-03T07:55:45.805Z,16.72
2018-08-03T07:56:45.759Z,16.81
2018-08-03T07:57:45.718Z,16.76
2018-08-03T07:58:45.671Z,16.71
2018-08-03T07:59:45.627Z,16.76
2018-08-03T08:00:45.573Z,16.76
2018-08-03T08:01:45.525Z,16.72
2018-08-03T08:02:45.492Z,16.72
2018-08-03T08:03:45.431Z,16.75
2018-08-03T08:04:45.380Z,16.72
2018-08-03T08:05:45.344Z,16.78
2018-08-03T08:06:45.294Z,16.71
2018-08-03T08:07:45.241Z,16.76
2018-08-03T08:08:45.205Z,16.71
2018-08-03T08:09:45.190Z,16.71
2018-08-03T08:10:45.090Z,16.76
2018-08-03T08:11:45.036Z,16.75
2018-08-03T08:12:44.982Z,16.76
2018-08-03T08:13:44.959Z,16.72
2018-08-03T08:14:44.910Z,16.81
2018-08-03T08:15:44.848Z,16.81
2018-08-03T08:16:44.827Z,16.72
2018-08-03T08:17:44.778Z,16.76
2018-08-03T08:18:44.712Z,16.72
2018-08-03T08:19:44.685Z,16.68
2018-08-03T08:20:44.618Z,16.72
2018-08-03T08:21:44.587Z,16.69
2018-08-03T08:22:44.539Z,16.69
2018-08-03T08:23:44.480Z,16.69
2018-08-03T08:24:44.424Z,16.58
2018-08-03T08:25:44.397Z,16.64
2018-08-03T08:26:44.356Z,16.69
2018-08-03T08:27:44.281Z,16.61
2018-08-03T08:28:44.297Z,16.65
2018-08-03T08:29:44.216Z,16.69
2018-08-03T08:30:44.163Z,16.64
2018-08-03T08:31:44.145Z,16.74
2018-08-03T08:32:44.070Z,16.71
2018-08-03T08:33:44.022Z,16.69
2018-08-03T08:34:43.950Z,16.71
2018-08-03T08:35:43.912Z,16.60
2018-08-03T08:36:43.880Z,16.65
2018-08-03T08:37:43.813Z,16.66
2018-08-03T08:38:43.776Z,16.65
2018-08-03T08:39:43.772Z,16.60
2018-08-03T08:40:43.699Z,16.60
2018-08-03T08:41:43.647Z,16.61
2018-08-03T08:42:43.594Z,16.54
2018-08-03T08:43:43.616Z,16.61
2018-08-03T08:44:43.547Z,16.66
2018-08-03T08:45:43.454Z,16.61
2018-08-03T08:46:43.407Z,16.57
2018-08-03T08:47:43.351Z,16.64
2018-08-03T08:48:43.296Z,16.57
2018-08-03T08:49:43.263Z,16.60
2018-08-03T08:50:43.211Z,16.61
2018-08-03T08:51:43.167Z,16.61
2018-08-03T08:52:43.149Z,16.56
2018-08-03T08:53:43.090Z,16.64
2018-08-03T08:54:43.066Z,16.66
2018-08-03T08:55:42.959Z,16.65
2018-08-03T08:56:42.913Z,16.58
2018-08-03T08:57:42.925Z,16.57
2018-08-03T08:58:42.849Z,16.58
2018-08-03T08:59:42.832Z,16.69
2018-08-03T09:00:42.757Z,16.58
2018-08-03T09:01:42.687Z,16.61
2018-08-03T09:02:42.656Z,16.56
2018-08-03T09:03:42.594Z,16.53
2018-08-03T09:04:42.533Z,16.64
2018-08-03T09:05:42.505Z,16.64
2018-08-03T09:06:42.500Z,16.60
2018-08-03T09:07:42.654Z,16.57
2018-08-03T09:08:42.403Z,16.57
2018-08-03T09:09:42.304Z,16.60
2018-08-03T09:10:42.276Z,16.65
2018-08-03T09:11:42.228Z,16.61
2018-08-03T09:12:42.169Z,16.60
2018-08-03T09:13:42.131Z,16.57
2018-08-03T09:14:42.076Z,16.58
2018-08-03T09:15:42.016Z,16.57
2018-08-03T09:16:41.995Z,16.54
2018-08-03T09:17:41.949Z,16.65
2018-08-03T09:18:41.904Z,16.64
2018-08-03T09:19:41.848Z,16.53
2018-08-03T09:20:41.791Z,16.60
2018-08-03T09:21:41.755Z,16.54
2018-08-03T09:22:41.697Z,16.66
2018-08-03T09:23:41.650Z,16.53
2018-08-03T09:24:41.639Z,16.56
2018-08-03T09:25:41.558Z,16.50
2018-08-03T09:26:41.515Z,16.57
2018-08-03T09:27:41.474Z,16.58
2018-08-03T09:28:41.401Z,16.57
2018-08-03T09:29:41.409Z,16.57
2018-08-03T09:30:41.313Z,16.61
2018-08-03T09:31:41.281Z,16.58
2018-08-03T09:32:41.230Z,16.58
2018-08-03T09:33:41.178Z,16.57
2018-08-03T09:34:41.120Z,16.58
2018-08-03T09:35:41.092Z,16.64
2018-08-03T09:36:41.035Z,16.56
2018-08-03T09:37:41.030Z,16.64
2018-08-03T09:38:40.931Z,16.57
2018-08-03T09:39:40.906Z,16.57
2018-08-03T09:40:40.863Z,16.58
2018-08-03T09:41:40.802Z,16.56
2018-08-03T09:42:40.743Z,16.58
2018-08-03T09:43:40.752Z,16.56
2018-08-03T09:44:40.672Z,16.57
2018-08-03T09:45:40.629Z,16.57
2018-08-03T09:46:40.561Z,16.54
2018-08-03T09:47:40.529Z,16.58
2018-08-03T09:48:40.477Z,16.57
2018-08-03T09:49:40.420Z,16.64
2018-08-03T09:50:40.417Z,16.66
2018-08-03T09:51:40.333Z,16.71
2018-08-03T09:52:40.285Z,16.69
2018-08-03T09:53:40.220Z,16.64
2018-08-03T09:54:40.190Z,16.58
2018-08-03T09:55:40.141Z,16.72
2018-08-03T09:56:40.084Z,16.57
2018-08-03T09:57:40.053Z,16.71
2018-08-03T09:58:40.003Z,16.68
2018-08-03T09:59:40.194Z,16.65
2018-08-03T10:00:39.912Z,16.66
2018-08-03T10:01:39.885Z,16.66
2018-08-03T10:02:39.815Z,16.66
2018-08-03T10:03:39.778Z,16.61
2018-08-03T10:04:39.710Z,16.68
2018-08-03T10:05:39.676Z,16.68
2018-08-03T10:06:39.616Z,16.69
2018-08-03T10:07:39.555Z,16.66
2018-08-03T10:08:39.537Z,16.68
2018-08-03T10:09:39.476Z,16.64
2018-08-03T10:10:39.444Z,16.65
2018-08-03T10:11:39.400Z,16.64
2018-08-03T10:12:39.351Z,16.60
2018-08-03T10:13:39.297Z,16.66
2018-08-03T10:14:39.227Z,16.66
2018-08-03T10:15:39.244Z,16.66
2018-08-03T10:16:39.146Z,16.76
2018-08-03T10:17:39.110Z,16.72
2018-08-03T10:18:39.060Z,16.57
2018-08-03T10:19:39.052Z,16.58
2018-08-03T10:20:38.961Z,16.64
2018-08-03T10:21:38.917Z,16.66
2018-08-03T10:22:38.902Z,16.69
2018-08-03T10:23:38.839Z,16.71
2018-08-03T10:24:38.783Z,16.74
2018-08-03T10:25:38.724Z,16.72
2018-08-03T10:26:38.677Z,16.75
2018-08-03T10:27:38.638Z,16.86
2018-08-03T10:28:38.586Z,16.72
2018-08-03T10:29:38.591Z,16.74
2018-08-03T10:30:38.478Z,16.74
2018-08-03T10:31:38.425Z,16.78
2018-08-03T10:32:38.400Z,16.75
2018-08-03T10:33:38.368Z,16.79
2018-08-03T10:34:38.341Z,16.83
2018-08-03T10:35:38.258Z,16.91
2018-08-03T10:36:38.184Z,16.89
2018-08-03T10:37:38.155Z,16.87
2018-08-03T10:38:38.116Z,16.87
2018-08-03T10:39:38.062Z,16.94
2018-08-03T10:40:38.032Z,16.81
2018-08-03T10:41:37.967Z,16.90
2018-08-03T10:42:37.924Z,16.89
2018-08-03T10:43:37.912Z,16.79
2018-08-03T10:44:37.837Z,16.83
2018-08-03T10:45:37.803Z,16.86
2018-08-03T10:46:37.742Z,16.87
2018-08-03T10:47:37.886Z,16.96
2018-08-03T10:48:37.672Z,16.96
2018-08-03T10:49:37.579Z,16.90
2018-08-03T10:50:37.562Z,16.89
2018-08-03T10:51:37.498Z,16.90
2018-08-03T10:52:37.481Z,16.76
2018-08-03T10:53:37.425Z,16.81
2018-08-03T10:54:37.375Z,16.89
2018-08-03T10:55:37.306Z,16.99
2018-08-03T10:56:37.267Z,16.91
2018-08-03T10:57:37.230Z,16.96
2018-08-03T10:58:37.169Z,16.96
2018-08-03T10:59:37.118Z,16.89
2018-08-03T11:00:37.117Z,16.93
2018-08-03T11:01:37.064Z,17.02
2018-08-03T11:02:36.973Z,16.96
2018-08-03T11:03:36.943Z,16.91
2018-08-03T11:04:36.902Z,16.91
2018-08-03T11:05:36.821Z,17.02
2018-08-03T11:06:36.810Z,16.94
2018-08-03T11:07:36.746Z,16.97
2018-08-03T11:08:36.716Z,17.06
2018-08-03T11:09:36.670Z,17.02
2018-08-03T11:10:36.600Z,16.89
2018-08-03T11:11:36.547Z,16.96
2018-08-03T11:12:36.495Z,17.01
2018-08-03T11:13:36.510Z,16.93
2018-08-03T11:14:36.453Z,16.94
2018-08-03T11:15:36.414Z,16.90
2018-08-03T11:16:36.351Z,17.02
2018-08-03T11:17:36.285Z,16.96
2018-08-03T11:18:36.251Z,17.01
2018-08-03T11:19:36.193Z,17.04
2018-08-03T11:20:36.174Z,16.99
2018-08-03T11:21:36.098Z,17.01
2018-08-03T11:22:36.050Z,16.97
2018-08-03T11:23:36.003Z,16.96
2018-08-03T11:24:35.955Z,17.02
2018-08-03T11:25:35.913Z,17.11
2018-08-03T11:26:35.864Z,16.97
2018-08-03T11:27:35.851Z,17.02
2018-08-03T11:28:35.803Z,17.09
2018-08-03T11:29:35.756Z,17.05
2018-08-03T11:30:35.656Z,16.99
2018-08-03T11:31:35.623Z,17.11
2018-08-03T11:32:35.582Z,17.04
2018-08-03T11:33:35.517Z,16.93
2018-08-03T11:34:35.501Z,16.94
2018-08-03T11:35:35.422Z,17.02
2018-08-03T11:36:35.392Z,17.06
2018-08-03T11:37:35.339Z,17.11
2018-08-03T11:38:35.301Z,17.02
2018-08-03T11:39:35.256Z,17.12
2018-08-03T11:40:35.197Z,17.09
2018-08-03T11:41:35.687Z,16.96
2018-08-03T11:42:35.125Z,16.94
2018-08-03T11:43:35.071Z,17.01
2018-08-03T11:44:35.007Z,17.02
2018-08-03T11:45:34.959Z,17.09
2018-08-03T11:46:34.901Z,17.02
2018-08-03T11:47:34.913Z,17.05
2018-08-03T11:48:34.835Z,16.97
2018-08-03T11:49:34.777Z,16.96
2018-08-03T11:50:34.785Z,17.06
2018-08-03T11:51:34.698Z,16.97
2018-08-03T11:52:34.647Z,17.05
2018-08-03T11:53:34.586Z,17.08
2018-08-03T11:54:34.534Z,17.02
2018-08-03T11:55:34.496Z,17.06
2018-08-03T11:56:34.461Z,17.02
2018-08-03T11:57:34.653Z,16.99
2018-08-03T11:58:34.348Z,16.96
2018-08-03T11:59:34.307Z,16.94
2018-08-03T12:00:34.280Z,16.89
2018-08-03T12:01:34.213Z,17.08
2018-08-03T12:02:34.184Z,16.99
2018-08-03T12:03:34.138Z,17.02
2018-08-03T12:04:34.093Z,17.01
2018-08-03T12:05:34.040Z,17.06
2018-08-03T12:06:34.116Z,17.06
2018-08-03T12:07:33.941Z,17.06
2018-08-03T12:08:33.897Z,16.90
2018-08-03T12:09:33.875Z,16.94
2018-08-03T12:10:33.787Z,17.02
2018-08-03T12:11:33.752Z,17.02
2018-08-03T12:12:33.782Z,17.02
2018-08-03T12:13:33.658Z,17.06
2018-08-03T12:14:33.595Z,17.04
2018-08-03T12:15:33.666Z,17.02
2018-08-03T12:16:33.538Z,16.96
2018-08-03T12:17:33.473Z,17.02
2018-08-03T12:18:33.421Z,17.01
2018-08-03T12:19:33.422Z,17.02
2018-08-03T12:20:33.335Z,17.02
2018-08-03T12:21:33.273Z,16.97
2018-08-03T12:22:33.238Z,17.02
2018-08-03T12:23:33.291Z,17.01
2018-08-03T12:24:33.144Z,16.87
2018-08-03T12:25:33.108Z,17.01
2018-08-03T12:26:33.033Z,16.87
2018-08-03T12:27:33.041Z,16.93
2018-08-03T12:28:32.936Z,16.93
2018-08-03T12:29:32.894Z,16.94
2018-08-03T12:30:32.860Z,16.83
2018-08-03T12:31:32.889Z,16.96
2018-08-03T12:32:32.749Z,17.01
2018-08-03T12:33:32.711Z,16.90
2018-08-03T12:34:32.681Z,16.96
2018-08-03T12:35:32.625Z,16.94
2018-08-03T12:36:32.576Z,16.96
2018-08-03T12:37:32.529Z,16.99
2018-08-03T12:38:32.487Z,16.99
2018-08-03T12:39:32.634Z,16.93
2018-08-03T12:40:32.371Z,17.02
2018-08-03T12:41:32.359Z,17.04
2018-08-03T12:42:32.283Z,17.08
2018-08-03T12:43:32.251Z,16.97
2018-08-03T12:44:32.213Z,16.99
2018-08-03T12:45:34.145Z,16.96
2018-08-03T12:46:32.107Z,16.93
2018-08-03T12:47:32.040Z,17.02
2018-08-03T12:48:32.020Z,16.97
2018-08-03T12:49:31.967Z,16.91
2018-08-03T12:50:32.082Z,16.90
2018-08-03T12:51:31.878Z,16.90